createdAt,value
2023-02-24T00:00:40.368Z,22.42
2023-02-24T00:03:11.723Z,17.30
2023-02-24T00:05:40.131Z,19.50
2023-02-24T00:08:07.509Z,24.50
2023-02-24T00:10:37.899Z,20.15
2023-02-24T00:13:05.239Z,21.10
2023-02-24T00:15:32.401Z,23.63
2023-02-24T00:18:07.392Z,21.48
2023-02-24T00:20:35.117Z,21.75
2023-02-24T00:23:02.270Z,20.35
2023-02-24T00:25:29.426Z,21.08
2023-02-24T00:27:56.685Z,18.90
2023-02-24T00:30:24.462Z,19.73
2023-02-24T00:32:51.829Z,21.00
2023-02-24T00:35:19.265Z,23.58
2023-02-24T00:37:51.493Z,19.92
2023-02-24T00:40:23.680Z,24.33
2023-02-24T00:42:51.173Z,20.08
2023-02-24T00:45:18.400Z,24.50
2023-02-24T00:47:45.593Z,20.45
2023-02-24T00:50:14.408Z,23.55
2023-02-24T00:52:43.534Z,18.87
2023-02-24T00:55:15.495Z,25.52
2023-02-24T00:57:42.784Z,23.15
2023-02-24T01:00:14.205Z,22.48
2023-02-24T01:02:41.730Z,21.00
2023-02-24T01:05:09.944Z,21.27
2023-02-24T01:07:37.437Z,22.58
2023-02-24T01:10:08.864Z,31.90
2023-02-24T01:12:39.178Z,22.05
2023-02-24T01:15:09.339Z,22.50
2023-02-24T01:17:37.528Z,24.40
2023-02-24T01:20:16.692Z,20.63
2023-02-24T01:22:46.517Z,19.45
2023-02-24T01:25:16.172Z,23.45
2023-02-24T01:27:43.388Z,24.23
2023-02-24T01:30:16.409Z,21.67
2023-02-24T01:32:44.426Z,20.98
2023-02-24T01:35:15.000Z,18.70
2023-02-24T01:37:43.493Z,23.90
2023-02-24T01:40:19.054Z,23.42
2023-02-24T01:42:47.982Z,22.10
2023-02-24T01:45:18.443Z,22.58
2023-02-24T01:47:47.598Z,26.20
2023-02-24T01:50:16.403Z,20.80
2023-02-24T01:52:46.784Z,26.77
2023-02-24T01:55:17.162Z,23.47
2023-02-24T01:57:46.498Z,25.83
2023-02-24T02:00:40.667Z,22.63
2023-02-24T02:03:11.065Z,20.40
2023-02-24T02:05:39.472Z,22.83
2023-02-24T02:08:09.280Z,27.05
2023-02-24T02:10:40.088Z,27.48
2023-02-24T02:13:07.507Z,23.88
2023-02-24T02:15:39.904Z,24.15
2023-02-24T02:18:18.170Z,27.88
2023-02-24T02:21:00.009Z,26.77
2023-02-24T02:23:50.442Z,26.00
2023-02-24T02:26:30.306Z,25.02
2023-02-24T02:29:16.055Z,24.83
2023-02-24T02:32:04.282Z,23.15
2023-02-24T02:34:37.444Z,26.63
2023-02-24T02:37:14.998Z,27.13
2023-02-24T02:40:09.610Z,27.67
2023-02-24T02:42:42.505Z,27.15
2023-02-24T02:45:13.632Z,27.73
2023-02-24T02:47:52.215Z,33.05
2023-02-24T02:50:33.426Z,27.27
2023-02-24T02:53:03.304Z,29.58
2023-02-24T02:55:42.720Z,29.55
2023-02-24T02:58:18.231Z,29.70
2023-02-24T03:00:58.723Z,29.58
2023-02-24T03:03:29.543Z,27.20
2023-02-24T03:06:00.119Z,31.00
2023-02-24T03:08:29.821Z,30.20
2023-02-24T03:11:00.649Z,30.73
2023-02-24T03:13:30.741Z,33.65
2023-02-24T03:16:02.950Z,32.80
2023-02-24T03:18:35.611Z,30.58
2023-02-24T03:21:08.301Z,32.60
2023-02-24T03:23:38.259Z,30.67
2023-02-24T03:26:17.392Z,30.83
2023-02-24T03:28:51.355Z,32.63
2023-02-24T03:31:24.720Z,32.17
2023-02-24T03:34:13.021Z,29.23
2023-02-24T03:36:40.835Z,30.85
2023-02-24T03:39:12.622Z,31.63
2023-02-24T03:41:57.885Z,31.55
2023-02-24T03:44:27.177Z,34.28
2023-02-24T03:46:58.900Z,40.88
2023-02-24T03:49:26.359Z,31.95
2023-02-24T03:51:57.338Z,36.47
2023-02-24T03:54:31.688Z,34.15
2023-02-24T03:57:25.481Z,33.25
2023-02-24T04:00:22.793Z,30.38
2023-02-24T04:03:06.708Z,32.40
2023-02-24T04:05:38.456Z,33.22
2023-02-24T04:08:08.477Z,30.53
2023-02-24T04:10:41.734Z,33.45
2023-02-24T04:13:19.199Z,31.98
2023-02-24T04:15:52.361Z,32.42
2023-02-24T04:18:22.056Z,32.40
2023-02-24T04:20:53.675Z,32.77
2023-02-24T04:23:27.108Z,30.15
2023-02-24T04:25:56.625Z,32.20
2023-02-24T04:28:25.861Z,32.80
2023-02-24T04:30:56.123Z,32.78
2023-02-24T04:33:23.903Z,33.90
2023-02-24T04:35:53.640Z,40.83
2023-02-24T04:38:22.020Z,38.97
2023-02-24T04:40:50.212Z,33.03
2023-02-24T04:43:17.622Z,37.75
2023-02-24T04:45:45.059Z,37.73
2023-02-24T04:48:15.586Z,38.30
2023-02-24T04:50:44.063Z,37.50
2023-02-24T04:53:12.867Z,41.00
2023-02-24T04:55:42.713Z,35.72
2023-02-24T04:58:13.282Z,37.50
2023-02-24T05:00:42.355Z,39.63
2023-02-24T05:03:11.978Z,34.35
2023-02-24T05:05:43.248Z,36.83
2023-02-24T05:08:11.772Z,39.95
2023-02-24T05:10:45.798Z,40.60
2023-02-24T05:13:14.401Z,34.85
2023-02-24T05:15:42.198Z,33.75
2023-02-24T05:18:14.368Z,35.35
2023-02-24T05:21:01.971Z,41.85
2023-02-24T05:23:32.312Z,37.97
2023-02-24T05:25:59.654Z,40.97
2023-02-24T05:28:27.037Z,37.35
2023-02-24T05:30:56.395Z,37.88
2023-02-24T05:33:23.752Z,35.70
2023-02-24T05:35:53.685Z,35.63
2023-02-24T05:38:21.208Z,39.75
2023-02-24T05:40:52.315Z,36.97
2023-02-24T05:43:20.597Z,37.00
2023-02-24T05:45:48.288Z,35.63
2023-02-24T05:48:15.597Z,42.40
2023-02-24T05:50:46.605Z,36.10
2023-02-24T05:53:13.832Z,32.55
2023-02-24T05:55:41.068Z,31.15
2023-02-24T05:58:08.336Z,37.20
2023-02-24T06:00:39.452Z,27.93
2023-02-24T06:03:17.918Z,33.03
2023-02-24T06:05:52.726Z,31.73
2023-02-24T06:08:19.928Z,33.08
2023-02-24T06:10:47.808Z,30.33
2023-02-24T06:13:15.010Z,34.43
2023-02-24T06:15:48.261Z,32.17
2023-02-24T06:18:17.901Z,32.22
2023-02-24T06:20:51.480Z,30.55
2023-02-24T06:23:19.940Z,31.73
2023-02-24T06:25:47.768Z,29.30
2023-02-24T06:28:15.044Z,37.13
2023-02-24T06:30:42.113Z,32.17
2023-02-24T06:33:11.021Z,30.75
2023-02-24T06:35:39.363Z,30.20
2023-02-24T06:38:06.903Z,31.73
2023-02-24T06:40:34.331Z,26.73
2023-02-24T06:43:01.893Z,28.10
2023-02-24T06:45:31.249Z,28.42
2023-02-24T06:47:58.492Z,31.67
2023-02-24T06:50:25.844Z,29.10
2023-02-24T06:52:55.468Z,31.20
2023-02-24T06:55:28.401Z,31.67
2023-02-24T06:57:59.615Z,31.33
2023-02-24T07:00:37.428Z,32.75
2023-02-24T07:03:17.264Z,28.30
2023-02-24T07:05:50.615Z,27.13
2023-02-24T07:08:19.062Z,29.90
2023-02-24T07:10:46.394Z,27.38
2023-02-24T07:13:13.952Z,26.75
2023-02-24T07:15:41.205Z,28.80
2023-02-24T07:18:15.064Z,28.08
2023-02-24T07:20:45.840Z,24.00
2023-02-24T07:23:17.089Z,24.65
2023-02-24T07:25:46.599Z,27.23
2023-02-24T07:28:14.512Z,27.70
2023-02-24T07:30:42.109Z,31.70
2023-02-24T07:33:09.593Z,22.48
2023-02-24T07:35:36.883Z,27.52
2023-02-24T07:38:05.781Z,24.02
2023-02-24T07:40:34.267Z,29.02
2023-02-24T07:43:01.724Z,29.30
2023-02-24T07:45:30.095Z,29.90
2023-02-24T07:47:58.598Z,28.80
2023-02-24T07:50:28.550Z,29.77
2023-02-24T07:52:55.910Z,27.35
2023-02-24T07:55:26.096Z,29.98
2023-02-24T07:57:55.136Z,28.92
2023-02-24T08:00:28.536Z,28.48
2023-02-24T08:02:57.072Z,26.90
2023-02-24T08:05:24.909Z,29.05
2023-02-24T08:07:52.574Z,27.47
2023-02-24T08:10:26.438Z,26.25
2023-02-24T08:13:03.366Z,27.92
2023-02-24T08:15:34.512Z,21.80
2023-02-24T08:18:02.226Z,28.75
2023-02-24T08:20:36.549Z,22.83
2023-02-24T08:23:06.709Z,23.00
2023-02-24T08:25:36.745Z,22.10
2023-02-24T08:28:09.204Z,23.98
2023-02-24T08:30:39.261Z,22.98
2023-02-24T08:33:07.807Z,21.80
2023-02-24T08:35:36.127Z,23.08
2023-02-24T08:38:05.382Z,23.92
2023-02-24T08:40:34.005Z,22.42
2023-02-24T08:43:19.618Z,23.08
2023-02-24T08:45:51.491Z,21.33
2023-02-24T08:48:27.542Z,26.27
2023-02-24T08:50:55.498Z,22.13
2023-02-24T08:53:23.259Z,20.25
2023-02-24T08:55:55.342Z,21.05
2023-02-24T08:58:27.381Z,20.95
2023-02-24T09:00:57.228Z,22.53
2023-02-24T09:03:29.192Z,23.60
2023-02-24T09:05:58.153Z,24.23
2023-02-24T09:08:33.998Z,26.17
2023-02-24T09:11:02.499Z,26.00
2023-02-24T09:13:34.055Z,26.53
2023-02-24T09:16:02.626Z,29.13
2023-02-24T09:18:38.750Z,22.17
2023-02-24T09:21:45.363Z,24.77
2023-02-24T09:24:14.053Z,31.90
2023-02-24T09:26:46.433Z,25.47
2023-02-24T09:29:32.094Z,25.48
2023-02-24T09:32:05.705Z,24.98
2023-02-24T09:34:38.492Z,31.02
2023-02-24T09:37:05.890Z,27.65
2023-02-24T09:39:53.959Z,24.63
2023-02-24T09:42:21.948Z,27.02
2023-02-24T09:44:55.994Z,27.73
2023-02-24T09:47:49.483Z,22.83
2023-02-24T09:50:40.311Z,24.77
2023-02-24T09:53:19.962Z,28.70
2023-02-24T09:56:05.056Z,21.70
2023-02-24T09:58:43.312Z,22.17
2023-02-24T10:01:33.924Z,30.90
2023-02-24T10:04:19.582Z,23.95
2023-02-24T10:06:49.442Z,26.77
2023-02-24T10:09:34.802Z,33.97
2023-02-24T10:12:20.379Z,30.30
2023-02-24T10:14:51.222Z,27.00
2023-02-24T10:17:23.615Z,24.35
2023-02-24T10:20:00.255Z,24.87
2023-02-24T10:22:35.121Z,27.92
2023-02-24T10:25:12.883Z,29.38
2023-02-24T10:27:43.081Z,26.27
2023-02-24T10:30:28.207Z,25.20
2023-02-24T10:33:01.909Z,30.10
2023-02-24T10:35:34.090Z,25.13
2023-02-24T10:38:05.727Z,26.83
2023-02-24T10:40:47.157Z,32.45
2023-02-24T10:43:30.344Z,23.80
2023-02-24T10:46:07.994Z,27.07
2023-02-24T10:48:42.305Z,23.67
2023-02-24T10:51:20.124Z,31.13
2023-02-24T10:53:53.633Z,24.73
2023-02-24T10:56:27.404Z,31.30
2023-02-24T10:59:41.002Z,25.63
2023-02-24T11:02:24.896Z,26.63
2023-02-24T11:05:04.270Z,24.58
2023-02-24T11:07:45.628Z,26.50
2023-02-24T11:10:14.422Z,25.55
2023-02-24T11:13:10.025Z,27.23
2023-02-24T11:15:59.366Z,24.42
2023-02-24T11:18:27.799Z,25.48
2023-02-24T11:20:55.031Z,26.33
2023-02-24T11:23:28.462Z,24.02
2023-02-24T11:25:59.488Z,23.13
2023-02-24T11:28:32.924Z,23.13
2023-02-24T11:31:00.086Z,24.75
2023-02-24T11:33:35.344Z,23.90
2023-02-24T11:36:13.030Z,25.35
2023-02-24T11:38:43.434Z,28.93
2023-02-24T11:41:23.212Z,26.08
2023-02-24T11:43:56.492Z,31.75
2023-02-24T11:46:29.461Z,32.13
2023-02-24T11:49:01.789Z,27.42
2023-02-24T11:51:35.005Z,22.57
2023-02-24T11:54:08.890Z,26.73
2023-02-24T11:56:42.508Z,28.77
2023-02-24T11:59:22.735Z,25.00
2023-02-24T12:02:03.990Z,26.73
2023-02-24T12:04:43.752Z,26.03
2023-02-24T12:07:28.503Z,26.92
2023-02-24T12:10:14.037Z,24.48
2023-02-24T12:12:55.224Z,23.65
2023-02-24T12:15:34.541Z,27.35
2023-02-24T12:18:20.999Z,25.20
2023-02-24T12:20:49.602Z,26.25
2023-02-24T12:23:31.939Z,23.83
2023-02-24T12:26:07.122Z,23.13
2023-02-24T12:28:48.978Z,22.05
2023-02-24T12:31:25.653Z,23.37
2023-02-24T12:34:04.458Z,23.27
2023-02-24T12:36:44.031Z,20.63
2023-02-24T12:39:37.156Z,27.75
2023-02-24T12:42:13.417Z,27.33
2023-02-24T12:44:40.753Z,23.87
2023-02-24T12:47:13.067Z,22.77
2023-02-24T12:49:48.373Z,27.58
2023-02-24T12:52:21.452Z,26.70
2023-02-24T12:54:51.497Z,24.25
2023-02-24T12:57:23.226Z,25.03
2023-02-24T12:59:51.053Z,25.08
2023-02-24T13:02:27.464Z,24.02
2023-02-24T13:05:01.735Z,29.67
2023-02-24T13:07:32.269Z,29.00
2023-02-24T13:09:59.562Z,23.52
2023-02-24T13:12:27.641Z,24.53
2023-02-24T13:14:55.027Z,25.67
2023-02-24T13:17:23.793Z,26.02
2023-02-24T13:19:55.637Z,24.30
2023-02-24T13:22:27.645Z,22.20
2023-02-24T13:24:54.704Z,24.23
2023-02-24T13:27:28.690Z,25.33
2023-02-24T13:29:57.776Z,24.90
2023-02-24T13:32:30.207Z,25.38
2023-02-24T13:34:59.618Z,21.67
2023-02-24T13:37:27.516Z,22.33
2023-02-24T13:39:54.697Z,22.10
2023-02-24T13:42:25.117Z,21.77
2023-02-24T13:45:02.367Z,24.67
2023-02-24T13:47:48.105Z,30.15
2023-02-24T13:50:21.950Z,26.73
2023-02-24T13:53:24.720Z,22.63
2023-02-24T13:56:05.337Z,31.70
2023-02-24T13:58:38.569Z,23.90
2023-02-24T14:01:10.027Z,30.90
2023-02-24T14:03:40.500Z,29.67
2023-02-24T14:06:15.019Z,24.05
2023-02-24T14:08:47.853Z,26.48
2023-02-24T14:11:16.202Z,25.67
2023-02-24T14:13:51.067Z,29.05
2023-02-24T14:16:21.981Z,22.03
2023-02-24T14:18:56.921Z,23.80
2023-02-24T14:21:25.770Z,30.20
2023-02-24T14:23:58.842Z,26.33
2023-02-24T14:26:26.356Z,24.48
2023-02-24T14:28:58.492Z,26.87
2023-02-24T14:31:26.496Z,26.05
2023-02-24T14:33:58.286Z,23.98
2023-02-24T14:36:29.015Z,28.25
2023-02-24T14:39:02.318Z,24.60
2023-02-24T14:41:29.526Z,27.40
2023-02-24T14:43:56.852Z,30.02
2023-02-24T14:46:24.480Z,34.53
2023-02-24T14:48:56.473Z,25.33
2023-02-24T14:51:28.618Z,25.70
2023-02-24T14:53:57.357Z,25.77
2023-02-24T14:56:28.914Z,31.73
2023-02-24T14:59:15.062Z,29.42
2023-02-24T15:01:44.379Z,31.13
2023-02-24T15:04:14.147Z,26.83
2023-02-24T15:06:43.050Z,25.67
2023-02-24T15:09:17.844Z,27.23
2023-02-24T15:11:45.240Z,26.15
2023-02-24T15:14:21.476Z,30.35
2023-02-24T15:16:52.034Z,27.95
2023-02-24T15:19:28.178Z,29.63
2023-02-24T15:21:57.672Z,29.27
2023-02-24T15:24:29.592Z,30.08
2023-02-24T15:27:02.076Z,30.08
2023-02-24T15:29:31.900Z,32.67
2023-02-24T15:32:00.360Z,28.35
2023-02-24T15:34:29.488Z,27.10
2023-02-24T15:36:59.201Z,25.73
2023-02-24T15:39:27.989Z,29.92
2023-02-24T15:42:07.066Z,29.25
2023-02-24T15:44:35.253Z,29.70
2023-02-24T15:47:22.383Z,28.03
2023-02-24T15:49:49.975Z,37.00
2023-02-24T15:52:23.518Z,32.97
2023-02-24T15:54:52.053Z,34.10
2023-02-24T15:57:20.624Z,35.78
2023-02-24T15:59:48.683Z,31.83
2023-02-24T16:02:22.841Z,42.13
2023-02-24T16:04:50.985Z,27.75
2023-02-24T16:07:21.115Z,32.70
2023-02-24T16:09:49.597Z,31.92
2023-02-24T16:12:20.772Z,34.00
2023-02-24T16:14:50.566Z,31.40
2023-02-24T16:17:22.125Z,35.88
2023-02-24T16:19:49.445Z,35.25
2023-02-24T16:22:16.717Z,32.28
2023-02-24T16:24:44.179Z,35.17
2023-02-24T16:27:16.702Z,32.70
2023-02-24T16:29:43.879Z,33.42
2023-02-24T16:32:12.771Z,38.75
2023-02-24T16:34:40.241Z,35.78
2023-02-24T16:37:16.879Z,36.23
2023-02-24T16:39:43.968Z,37.85
2023-02-24T16:42:11.538Z,38.47
2023-02-24T16:44:38.797Z,37.60
2023-02-24T16:47:08.090Z,35.78
2023-02-24T16:49:35.941Z,38.70
2023-02-24T16:52:03.069Z,39.70
2023-02-24T16:54:30.248Z,36.65
2023-02-24T16:56:57.318Z,36.47
2023-02-24T16:59:26.747Z,41.13
2023-02-24T17:01:54.284Z,38.53
2023-02-24T17:04:22.649Z,37.60
2023-02-24T17:06:50.022Z,39.33
2023-02-24T17:09:20.363Z,37.83
2023-02-24T17:11:47.642Z,40.72
2023-02-24T17:14:17.054Z,39.43
2023-02-24T17:16:45.630Z,38.78
2023-02-24T17:19:13.088Z,41.03
2023-02-24T17:21:45.190Z,39.20
2023-02-24T17:24:19.524Z,44.38
2023-02-24T17:26:47.106Z,42.87
2023-02-24T17:29:14.955Z,40.75
2023-02-24T17:31:42.782Z,43.17
2023-02-24T17:34:11.173Z,42.92
2023-02-24T17:36:38.361Z,45.80
2023-02-24T17:39:05.599Z,43.63
2023-02-24T17:41:32.894Z,53.00
2023-02-24T17:44:00.182Z,46.70
2023-02-24T17:46:27.414Z,46.20
2023-02-24T17:48:54.705Z,46.83
2023-02-24T17:51:22.908Z,49.13
2023-02-24T17:53:50.224Z,44.38
2023-02-24T17:56:17.575Z,63.22
2023-02-24T17:58:44.732Z,60.00
2023-02-24T18:01:11.868Z,65.47
2023-02-24T18:03:39.333Z,62.07
2023-02-24T18:06:10.867Z,52.47
2023-02-24T18:08:38.643Z,53.55
2023-02-24T18:11:07.629Z,51.38
2023-02-24T18:13:34.836Z,55.67
2023-02-24T18:16:02.070Z,49.20
2023-02-24T18:18:30.703Z,57.75
2023-02-24T18:21:02.105Z,55.88
2023-02-24T18:23:29.889Z,45.17
2023-02-24T18:25:57.408Z,55.70
2023-02-24T18:28:24.722Z,52.97
2023-02-24T18:30:52.446Z,51.28
2023-02-24T18:33:19.949Z,50.30
2023-02-24T18:35:47.210Z,44.70
2023-02-24T18:38:14.439Z,55.72
2023-02-24T18:40:41.598Z,52.95
2023-02-24T18:43:08.750Z,51.77
2023-02-24T18:45:35.970Z,55.90
2023-02-24T18:48:07.041Z,53.03
2023-02-24T18:50:34.410Z,46.17
2023-02-24T18:53:01.595Z,44.15
2023-02-24T18:55:28.907Z,47.10
2023-02-24T18:57:57.111Z,51.90
2023-02-24T19:00:24.567Z,42.72
2023-02-24T19:02:51.991Z,45.38
2023-02-24T19:05:20.771Z,46.65
2023-02-24T19:07:49.954Z,53.27
2023-02-24T19:10:17.370Z,48.65
2023-02-24T19:12:44.530Z,43.85
2023-02-24T19:15:12.845Z,47.25
2023-02-24T19:17:40.050Z,46.15
2023-02-24T19:20:07.728Z,48.07
2023-02-24T19:22:34.981Z,43.45
2023-02-24T19:25:03.207Z,44.85
2023-02-24T19:27:30.376Z,49.20
2023-02-24T19:29:58.349Z,56.38
2023-02-24T19:32:25.933Z,54.23
2023-02-24T19:34:53.463Z,57.60
2023-02-24T19:37:20.665Z,63.03
2023-02-24T19:39:48.010Z,62.85
2023-02-24T19:42:18.130Z,52.20
2023-02-24T19:44:45.218Z,59.13
2023-02-24T19:47:12.328Z,55.10
2023-02-24T19:49:41.735Z,54.80
2023-02-24T19:52:09.149Z,51.70
2023-02-24T19:54:36.622Z,55.92
2023-02-24T19:57:10.358Z,59.77
2023-02-24T19:59:39.675Z,62.38
2023-02-24T20:02:08.004Z,60.92
2023-02-24T20:04:35.352Z,63.42
2023-02-24T20:07:02.601Z,74.82
2023-02-24T20:09:29.806Z,67.73
2023-02-24T20:11:59.370Z,74.10
2023-02-24T20:14:28.304Z,65.95
2023-02-24T20:17:05.801Z,59.92
2023-02-24T20:19:47.855Z,48.30
2023-02-24T20:22:27.242Z,46.00
2023-02-24T20:25:31.507Z,43.85
2023-02-24T20:28:25.352Z,39.67
2023-02-24T20:34:10.012Z,37.50
2023-02-24T20:36:47.813Z,39.47
2023-02-24T20:39:35.256Z,35.47
2023-02-24T20:42:12.926Z,33.15
2023-02-24T20:44:56.761Z,30.75
2023-02-24T20:47:52.963Z,28.30
2023-02-24T20:53:56.647Z,26.83
2023-02-24T21:00:07.809Z,34.97
2023-02-24T21:02:35.849Z,30.85
2023-02-24T21:05:03.250Z,26.73
2023-02-24T21:07:32.046Z,31.20
2023-02-24T21:09:59.318Z,26.15
2023-02-24T21:12:26.493Z,28.40
2023-02-24T21:14:53.705Z,31.30
2023-02-24T21:17:21.122Z,24.98
2023-02-24T21:19:48.390Z,25.50
2023-02-24T21:22:18.004Z,28.63
2023-02-24T21:24:45.263Z,30.77
2023-02-24T21:27:12.390Z,24.95
2023-02-24T21:29:39.468Z,30.33
2023-02-24T21:32:06.768Z,27.77
2023-02-24T21:34:34.461Z,26.05
2023-02-24T21:37:04.040Z,31.35
2023-02-24T21:39:31.439Z,27.13
2023-02-24T21:41:58.617Z,28.45
2023-02-24T21:44:25.982Z,29.80
2023-02-24T21:46:53.334Z,25.98
2023-02-24T21:49:20.510Z,28.85
2023-02-24T21:51:51.079Z,29.55
2023-02-24T21:54:18.326Z,28.48
2023-02-24T21:56:45.551Z,31.43
2023-02-24T21:59:12.800Z,31.00
2023-02-24T22:01:42.750Z,27.50
2023-02-24T22:04:11.537Z,29.23
2023-02-24T22:06:39.485Z,25.88
2023-02-24T22:09:07.849Z,23.87
2023-02-24T22:11:35.874Z,30.05
2023-02-24T22:14:03.142Z,27.02
2023-02-24T22:16:30.384Z,27.55
2023-02-24T22:18:57.553Z,30.60
2023-02-24T22:21:26.062Z,27.83
2023-02-24T22:23:54.511Z,32.85
2023-02-24T22:26:24.025Z,34.03
2023-02-24T22:28:51.839Z,40.10
2023-02-24T22:31:20.378Z,37.85
2023-02-24T22:33:47.767Z,36.70
2023-02-24T22:36:19.247Z,40.60
2023-02-24T22:38:46.989Z,38.72
2023-02-24T22:41:21.293Z,43.53
2023-02-24T22:43:48.515Z,48.85
2023-02-24T22:46:16.928Z,44.77
2023-02-24T22:48:44.211Z,37.67
2023-02-24T22:51:13.033Z,33.83
2023-02-24T22:53:41.090Z,39.20
2023-02-24T22:56:09.161Z,51.15
2023-02-24T22:58:38.091Z,73.83
2023-02-24T23:01:12.666Z,48.70
2023-02-24T23:03:40.618Z,41.25
2023-02-24T23:06:09.220Z,41.13
2023-02-24T23:08:37.569Z,38.08
2023-02-24T23:11:12.636Z,41.63
2023-02-24T23:13:40.776Z,39.15
2023-02-24T23:16:09.371Z,45.97
2023-02-24T23:18:37.224Z,44.72
2023-02-24T23:21:06.420Z,45.13
2023-02-24T23:23:33.480Z,42.93
2023-02-24T23:26:00.556Z,38.15
2023-02-24T23:28:28.059Z,35.33
2023-02-24T23:30:56.657Z,34.38
2023-02-24T23:33:25.034Z,35.88
2023-02-24T23:35:52.275Z,27.33
2023-02-24T23:38:19.423Z,30.45
2023-02-24T23:40:50.908Z,29.35
2023-02-24T23:43:18.310Z,29.10
2023-02-24T23:45:45.641Z,29.15
2023-02-24T23:48:13.871Z,30.67
2023-02-24T23:50:42.077Z,31.80
2023-02-24T23:53:10.036Z,35.80
2023-02-24T23:55:39.478Z,32.63
2023-02-24T23:58:07.921Z,29.67
